Time;durP1;ratioP1;P1;durP2;ratioP2;P2;SDS_P1;SDS_P2;PMS_P1;PMS_P2;Temp;Humidity;BMP_temperature;BMP_pressure;BME280_temperature;BME280_humidity;BME280_pressure;Samples;Min_cycle;Max_cycle;Signal;HPM_P1;HPM_P2
2021/12/29 06:01:09;;;;;;;34.92;22.05;;;;;;;7.14;82.73;93561.30;828081;71;29684;-78
2021/12/29 06:16:09;;;;;;;26.85;18.80;;;;;;;7.30;82.37;93557.84;827960;71;29770;-78
2021/12/29 06:31:14;;;;;;;30.92;20.32;;;;;;;7.21;82.24;93576.02;823061;70;32900;-78
2021/12/29 06:46:15;;;;;;;35.58;21.93;;;;;;;7.31;82.82;93584.96;824171;71;33174;-77
2021/12/29 07:01:08;;;;;;;35.03;23.75;;;;;;;7.50;83.12;93592.72;829440;70;29672;-79
2021/12/29 07:16:08;;;;;;;46.35;28.12;;;;;;;7.69;83.06;93601.74;827842;70;29776;-76
2021/12/29 07:31:08;;;;;;;35.25;24.37;;;;;;;7.79;82.67;93618.52;827353;70;29741;-78
2021/12/29 07:46:10;;;;;;;36.50;23.75;;;;;;;7.80;83.55;93612.21;820021;71;30737;-75
2021/12/29 08:01:14;;;;;;;40.78;26.00;;;;;;;7.87;84.95;93607.13;827169;70;32791;-77
2021/12/29 08:16:09;;;;;;;42.62;26.90;;;;;;;7.86;85.78;93608.98;823976;71;30289;-75
2021/12/29 08:31:08;;;;;;;44.18;27.62;;;;;;;7.91;86.74;93610.73;824104;70;29656;-76
2021/12/29 08:46:16;;;;;;;46.95;28.45;;;;;;;8.00;87.45;93608.42;834748;70;33171;-78
2021/12/29 09:01:09;;;;;;;40.20;26.85;;;;;;;8.03;87.66;93602.62;828083;70;30269;-75
2021/12/29 09:16:10;;;;;;;44.67;26.85;;;;;;;8.27;88.49;93583.30;828026;71;30223;-74
2021/12/29 09:31:09;;;;;;;42.85;27.27;;;;;;;8.53;86.80;93565.22;828858;70;29825;-75
2021/12/29 09:46:19;;;;;;;42.70;28.95;;;;;;;8.25;87.52;93543.62;827562;70;32842;-75
2021/12/29 10:01:16;;;;;;;47.55;30.32;;;;;;;8.52;86.78;93532.86;828216;70;32798;-77
2021/12/29 10:16:18;;;;;;;52.35;32.38;;;;;;;8.72;87.69;93523.73;820638;71;32728;-75
2021/12/29 10:31:13;;;;;;;41.98;27.37;;;;;;;9.01;86.91;93508.34;824359;70;29795;-75
2021/12/29 10:46:22;;;;;;;73.65;43.63;;;;;;;9.32;86.73;93501.52;815719;71;33209;-77
2021/12/29 11:01:12;;;;;;;78.70;49.18;;;;;;;9.43;85.83;93486.70;826897;70;30167;-76
2021/12/29 11:16:19;;;;;;;94.95;52.33;;;;;;;9.56;85.59;93484.87;824139;71;32744;-78
2021/12/29 11:31:15;;;;;;;79.12;46.35;;;;;;;9.57;84.65;93464.68;826137;70;33326;-77
2021/12/29 11:46:13;;;;;;;99.80;52.27;;;;;;;;;;834441;70;33242;-79
2021/12/29 12:01:12;;;;;;;92.20;50.23;;;;;;;9.82;83.95;93430.43;827818;71;30275;-78
2021/12/29 12:16:11;;;;;;;84.37;47.80;;;;;;;10.07;83.21;93432.03;827980;71;29541;-78
2021/12/29 12:31:10;;;;;;;82.12;46.63;;;;;;;10.15;82.10;93427.31;827184;71;30140;-78
2021/12/29 12:46:43;;;;;;;89.15;52.50;;;;;;;10.16;82.08;93420.45;833704;71;33196;-79
2021/12/29 13:01:23;;;;;;;78.00;46.68;;;;;;;10.10;81.89;93438.73;819714;70;30359;-78
2021/12/29 13:16:12;;;;;;;64.25;36.90;;;;;;;10.05;81.36;93449.91;822726;71;30836;-78
2021/12/29 13:31:22;;;;;;;72.45;43.45;;;;;;;10.00;81.78;93466.02;823625;71;29552;-78
2021/12/29 13:46:19;;;;;;;82.90;47.70;;;;;;;9.91;81.76;93475.73;822031;71;33341;-78
2021/12/29 14:01:10;;;;;;;76.30;45.58;;;;;;;9.79;81.86;93474.26;828468;71;30269;-76
2021/12/29 14:16:10;;;;;;;74.03;42.70;;;;;;;9.72;81.91;93488.36;827255;70;29831;-78
2021/12/29 14:31:40;;;;;;;78.97;44.83;;;;;;;9.68;82.56;93484.81;822248;71;33508;-76
2021/12/29 14:46:23;;;;;;;80.77;45.58;;;;;;;9.57;82.92;93484.31;828760;71;31980;-78
2021/12/29 18:01:09;;;;;;;26.70;18.10;;;;;;;8.47;91.47;93572.95;828112;71;30279;-80
2021/12/29 18:16:09;;;;;;;16.20;12.15;;;;;;;8.74;88.97;93590.89;834215;71;30229;-81
2021/12/29 18:31:18;;;;;;;14.85;10.38;;;;;;;8.73;86.85;93599.28;820102;71;32159;-82
2021/12/29 18:46:09;;;;;;;10.38;8.80;;;;;;;8.62;86.12;93618.91;821457;71;30342;-82
2021/12/29 19:01:14;;;;;;;14.23;10.23;;;;;;;8.47;86.00;93631.77;820588;71;32186;-83
2021/12/29 19:16:12;;;;;;;14.58;10.23;;;;;;;8.42;86.71;93627.43;833888;71;30853;-81
2021/12/29 19:31:15;;;;;;;12.78;9.98;;;;;;;8.34;86.42;93641.17;827271;71;32728;-80
2021/12/29 19:46:17;;;;;;;16.00;11.43;;;;;;;8.11;86.14;93653.93;827141;71;33282;-80
2021/12/29 20:01:09;;;;;;;11.53;10.10;;;;;;;7.99;86.73;93661.74;827941;71;30199;-79
2021/12/29 20:16:18;;;;;;;8.83;7.62;;;;;;;7.84;85.41;93668.55;833638;71;32993;-80
2021/12/29 20:31:12;;;;;;;11.43;9.10;;;;;;;7.72;85.52;93682.09;828232;71;30361;-78
2021/12/29 20:46:17;;;;;;;8.25;6.92;;;;;;;7.65;85.05;93678.33;827405;71;32680;-77
2021/12/29 21:01:16;;;;;;;8.60;7.05;;;;;;;7.51;84.20;93699.96;827409;71;32719;-78
2021/12/29 21:16:22;;;;;;;7.67;6.87;;;;;;;7.37;83.76;93718.20;834004;71;31683;-78
2021/12/29 21:31:19;;;;;;;8.80;6.70;;;;;;;7.30;83.53;93713.09;827470;71;31770;-80
2021/12/29 21:46:26;;;;;;;9.08;8.08;;;;;;;7.08;83.54;93722.86;834370;71;31732;-81
2021/12/29 22:01:14;;;;;;;7.37;6.65;;;;;;;7.03;83.42;93723.69;827839;71;31609;-78
2021/12/29 22:16:10;;;;;;;7.05;6.35;;;;;;;7.01;83.07;93725.30;828150;71;29661;-80
2021/12/29 22:31:16;;;;;;;6.87;6.20;;;;;;;6.99;82.70;93722.70;833979;71;31710;-80
2021/12/29 22:46:11;;;;;;;7.83;6.35;;;;;;;6.94;82.49;93730.62;834207;71;29235;-80
2021/12/29 23:01:13;;;;;;;7.30;6.47;;;;;;;6.91;82.18;93739.76;827987;71;29219;-78
2021/12/29 23:16:10;;;;;;;6.80;5.87;;;;;;;6.87;82.17;93748.44;834032;71;29303;-80
2021/12/29 23:31:20;;;;;;;8.53;6.58;;;;;;;6.91;82.07;93752.03;828804;71;31788;-78
2021/12/29 23:46:17;;;;;;;5.97;5.30;;;;;;;6.87;81.91;93756.26;834159;71;32178;-80
